Time;durP1;ratioP1;P1;durP2;ratioP2;P2;SDS_P1;SDS_P2;PMS_P1;PMS_P2;Temp;Humidity;BMP_temperature;BMP_pressure;BME280_temperature;BME280_humidity;BME280_pressure;Samples;Min_cycle;Max_cycle;Signal;HPM_P1;HPM_P2
2021/04/08 00:02:03;;;;;;;0.50;0.50;;;1.20;99.90;;;;;;6090954;23;20190;-81
2021/04/08 00:04:29;;;;;;;0.50;0.50;;;1.20;99.90;;;;;;6090407;23;20202;-81
2021/04/08 00:06:56;;;;;;;0.50;0.50;;;1.20;99.90;;;;;;6089175;23;20179;-80
2021/04/08 00:09:23;;;;;;;0.60;0.60;;;1.20;99.90;;;;;;6087532;23;20187;-80
2021/04/08 00:11:49;;;;;;;0.60;0.60;;;1.20;99.90;;;;;;6088025;23;20562;-80
2021/04/08 00:14:16;;;;;;;0.50;0.50;;;1.20;99.90;;;;;;6088679;23;20179;-81
2021/04/08 00:16:43;;;;;;;0.50;0.50;;;1.20;99.90;;;;;;6087798;23;20644;-81
2021/04/08 00:19:10;;;;;;;0.50;0.50;;;1.20;99.90;;;;;;6088796;23;20416;-81
2021/04/08 00:21:36;;;;;;;0.60;0.60;;;1.30;99.90;;;;;;6090437;23;20187;-81
2021/04/08 00:24:04;;;;;;;0.60;0.60;;;1.30;99.90;;;;;;6091082;23;20198;-81
2021/04/08 00:26:31;;;;;;;0.50;0.50;;;1.30;99.90;;;;;;6091596;23;20190;-81
2021/04/08 00:28:57;;;;;;;0.60;0.60;;;1.30;99.90;;;;;;6091961;23;20190;-81
2021/04/08 00:31:23;;;;;;;0.60;0.60;;;1.20;99.90;;;;;;6095289;23;20725;-82
2021/04/08 00:33:49;;;;;;;0.60;0.60;;;1.20;99.90;;;;;;6105443;23;20199;-82
2021/04/08 00:36:16;;;;;;;0.50;0.50;;;1.20;99.90;;;;;;6109219;23;20227;-82
2021/04/08 00:38:42;;;;;;;0.50;0.50;;;1.10;99.90;;;;;;6110392;23;20186;-82
2021/04/08 00:41:10;;;;;;;0.60;0.60;;;1.10;99.90;;;;;;6114616;23;20210;-82
2021/04/08 00:43:36;;;;;;;0.60;0.60;;;1.10;99.90;;;;;;6116369;23;20183;-82
2021/04/08 00:46:03;;;;;;;0.50;0.50;;;5.00;99.90;;;;;;6115383;23;20190;-81
2021/04/08 00:48:30;;;;;;;0.50;0.50;;;0.20;99.90;;;;;;6113115;23;20179;-82
2021/04/08 00:50:56;;;;;;;0.60;0.60;;;3.20;99.90;;;;;;6104794;23;20246;-82
2021/04/08 00:53:26;;;;;;;0.60;0.60;;;3.10;99.90;;;;;;6103784;23;20202;-82
2021/04/08 00:55:55;;;;;;;0.50;0.50;;;-0.60;99.90;;;;;;6106666;23;20510;-82
2021/04/08 00:58:23;;;;;;;0.57;0.57;;;1.10;99.90;;;;;;6108353;23;20175;-81
2021/04/08 01:00:51;;;;;;;0.50;0.50;;;2.80;99.90;;;;;;6110636;23;20179;-81
2021/04/08 01:03:20;;;;;;;0.50;0.50;;;0.40;99.90;;;;;;6109187;23;20266;-81
2021/04/08 01:05:47;;;;;;;0.50;0.50;;;1.60;99.90;;;;;;6110266;23;20217;-81
2021/04/08 01:08:14;;;;;;;0.50;0.50;;;1.50;99.90;;;;;;6111556;23;20229;-81
2021/04/08 01:10:43;;;;;;;0.50;0.50;;;0.70;99.90;;;;;;6109644;23;20179;-81
2021/04/08 01:13:12;;;;;;;0.55;0.55;;;0.40;99.90;;;;;;6103819;23;20221;-82
2021/04/08 01:15:40;;;;;;;0.57;0.57;;;3.80;99.90;;;;;;6104022;23;20214;-81
2021/04/08 01:18:18;;;;;;;0.50;0.50;;;0.80;99.90;;;;;;6099146;23;20198;-81
2021/04/08 01:21:03;;;;;;;0.50;0.50;;;4.00;99.90;;;;;;6098274;23;20163;-80
2021/04/08 01:23:55;;;;;;;0.50;0.50;;;1.00;99.90;;;;;;6093250;23;20175;-80
2021/04/08 01:27:05;;;;;;;0.50;0.50;;;1.00;99.90;;;;;;6091729;23;20191;-81
2021/04/08 01:29:46;;;;;;;0.60;0.60;;;1.10;99.90;;;;;;6095373;23;20168;-81
2021/04/08 01:32:15;;;;;;;0.50;0.50;;;1.10;99.90;;;;;;6094781;23;20207;-80
2021/04/08 01:34:45;;;;;;;0.60;0.60;;;1.20;99.90;;;;;;6093992;23;20179;-80
2021/04/08 01:37:13;;;;;;;0.50;0.50;;;1.10;99.90;;;;;;6092770;23;20508;-81
2021/04/08 01:39:43;;;;;;;0.50;0.50;;;1.10;99.90;;;;;;6092627;23;20186;-81
2021/04/08 01:42:14;;;;;;;0.60;0.60;;;1.10;99.90;;;;;;6091432;23;20479;-81
2021/04/08 01:44:40;;;;;;;0.60;0.60;;;1.10;99.90;;;;;;6092428;23;20190;-81
2021/04/08 01:47:09;;;;;;;0.57;0.57;;;1.10;99.90;;;;;;6091650;23;20206;-80
2021/04/08 01:49:41;;;;;;;0.50;0.50;;;1.00;99.90;;;;;;6092692;23;20631;-81
2021/04/08 01:52:09;;;;;;;0.50;0.50;;;1.00;99.90;;;;;;6093101;23;20401;-81
2021/04/08 01:54:39;;;;;;;0.60;0.60;;;1.00;99.90;;;;;;6091180;23;20187;-80
2021/04/08 01:57:08;;;;;;;0.50;0.50;;;0.90;99.90;;;;;;6088589;23;20190;-81
2021/04/08 01:59:35;;;;;;;0.50;0.50;;;0.90;99.90;;;;;;6088960;23;20199;-80
2021/04/08 02:02:03;;;;;;;0.50;0.50;;;0.90;99.90;;;;;;6089645;23;20184;-80
2021/04/08 02:04:30;;;;;;;0.50;0.50;;;0.90;99.90;;;;;;6090931;23;20190;-80
2021/04/08 02:07:00;;;;;;;0.55;0.55;;;1.30;99.90;;;;;;6090363;23;20187;-81
2021/04/08 02:09:27;;;;;;;0.60;0.60;;;0.90;99.90;;;;;;6089435;23;20187;-81
2021/04/08 02:11:55;;;;;;;0.60;0.60;;;1.00;99.90;;;;;;6090385;23;20183;-81
2021/04/08 02:14:22;;;;;;;0.50;0.50;;;0.80;99.90;;;;;;6089812;23;20671;-80
2021/04/08 02:16:50;;;;;;;0.60;0.60;;;0.90;99.90;;;;;;6090158;23;20183;-81
2021/04/08 02:19:20;;;;;;;0.50;0.50;;;0.80;99.90;;;;;;6090940;23;20562;-81
2021/04/08 02:21:47;;;;;;;0.57;0.57;;;0.80;99.90;;;;;;6089637;23;20183;-81
2021/04/08 02:24:16;;;;;;;0.50;0.50;;;0.90;99.90;;;;;;6089618;23;20229;-81
2021/04/08 02:26:44;;;;;;;0.50;0.50;;;0.90;99.90;;;;;;6095035;23;20233;-81
2021/04/08 02:29:12;;;;;;;0.50;0.50;;;0.90;99.90;;;;;;6090998;23;20282;-80
2021/04/08 02:31:39;;;;;;;0.60;0.60;;;0.80;99.90;;;;;;6090358;23;20208;-81
2021/04/08 02:34:06;;;;;;;0.60;0.60;;;0.90;99.90;;;;;;6091822;23;20199;-81
2021/04/08 02:36:32;;;;;;;0.60;0.60;;;0.90;99.90;;;;;;6092112;23;20515;-81
2021/04/08 02:38:58;;;;;;;0.55;0.55;;;1.00;99.90;;;;;;6089964;23;20198;-80
2021/04/08 02:41:25;;;;;;;0.50;0.50;;;0.90;99.90;;;;;;6087456;23;20179;-80
2021/04/08 02:43:51;;;;;;;0.50;0.50;;;0.90;99.90;;;;;;6087268;23;20175;-80
2021/04/08 02:46:18;;;;;;;0.50;0.50;;;0.90;99.90;;;;;;6087260;23;20183;-80
2021/04/08 02:48:44;;;;;;;0.50;0.50;;;1.00;99.90;;;;;;6087962;23;20261;-80
2021/04/08 02:51:17;;;;;;;0.50;0.50;;;0.90;99.90;;;;;;6087127;23;20199;-80
2021/04/08 02:53:50;;;;;;;0.55;0.55;;;0.90;99.90;;;;;;6087625;23;20206;-80
2021/04/08 02:56:24;;;;;;;0.50;0.50;;;0.90;99.90;;;;;;6087796;23;20173;-80
2021/04/08 02:58:55;;;;;;;0.50;0.50;;;0.80;99.90;;;;;;6087188;23;20190;-80
2021/04/08 03:01:24;;;;;;;0.50;0.50;;;0.80;99.90;;;;;;6087206;23;20511;-80
2021/04/08 03:03:52;;;;;;;0.50;0.50;;;0.70;99.90;;;;;;6087370;23;20180;-80
2021/04/08 03:06:19;;;;;;;0.60;0.60;;;0.70;99.90;;;;;;6082000;23;20186;-79
2021/04/08 03:08:49;;;;;;;0.50;0.50;;;0.70;99.90;;;;;;6086640;23;20186;-79
2021/04/08 03:11:19;;;;;;;0.60;0.60;;;0.70;99.90;;;;;;6086387;23;20187;-79
2021/04/08 03:13:48;;;;;;;0.50;0.50;;;0.70;99.90;;;;;;6086593;23;20206;-79
2021/04/08 03:16:20;;;;;;;0.50;0.50;;;0.70;99.90;;;;;;6086729;23;20191;-79
2021/04/08 03:18:49;;;;;;;0.50;0.50;;;0.70;99.90;;;;;;6087061;23;20163;-79
2021/04/08 03:21:17;;;;;;;0.55;0.55;;;0.60;99.90;;;;;;6086341;23;20182;-79
2021/04/08 03:23:44;;;;;;;0.50;0.50;;;0.60;99.90;;;;;;6086904;23;20182;-80
2021/04/08 03:26:11;;;;;;;0.50;0.50;;;0.60;99.90;;;;;;6086404;23;20179;-80
2021/04/08 03:28:39;;;;;;;0.50;0.50;;;0.60;99.90;;;;;;6086268;23;20187;-79
2021/04/08 03:31:06;;;;;;;0.50;0.50;;;0.60;99.90;;;;;;6085706;23;20211;-79
2021/04/08 03:33:34;;;;;;;0.50;0.50;;;0.50;99.90;;;;;;6086379;23;20579;-79
2021/04/08 03:36:01;;;;;;;0.50;0.50;;;0.50;99.90;;;;;;6086847;23;20187;-79
2021/04/08 03:38:28;;;;;;;0.50;0.50;;;0.50;99.90;;;;;;6085987;23;20180;-79
2021/04/08 03:40:58;;;;;;;0.50;0.50;;;0.60;99.90;;;;;;6085707;23;20187;-79
2021/04/08 03:43:26;;;;;;;0.50;0.50;;;0.50;99.90;;;;;;6085996;23;20182;-79
2021/04/08 03:45:56;;;;;;;0.50;0.50;;;0.50;99.90;;;;;;6086009;23;20187;-79
2021/04/08 03:48:22;;;;;;;0.55;0.55;;;0.50;99.90;;;;;;6086406;23;20345;-79
2021/04/08 03:50:50;;;;;;;0.50;0.50;;;0.50;99.90;;;;;;6087807;23;20211;-80
2021/04/08 03:53:18;;;;;;;0.60;0.60;;;0.50;99.90;;;;;;6095724;23;20249;-81
2021/04/08 03:55:47;;;;;;;0.50;0.50;;;0.50;99.90;;;;;;6098330;23;20286;-81
2021/04/08 03:58:14;;;;;;;0.60;0.60;;;0.50;99.90;;;;;;6099394;23;20211;-81
2021/04/08 04:00:41;;;;;;;0.50;0.50;;;0.50;99.90;;;;;;6097333;23;20508;-81
2021/04/08 04:03:09;;;;;;;0.50;0.50;;;0.40;99.90;;;;;;6099559;23;20184;-80
2021/04/08 04:05:37;;;;;;;0.55;0.55;;;0.50;99.90;;;;;;6101474;23;20183;-81
2021/04/08 04:08:05;;;;;;;0.50;0.50;;;0.40;99.90;;;;;;6102046;23;20183;-81
2021/04/08 04:10:35;;;;;;;0.50;0.50;;;0.50;99.90;;;;;;6101515;23;20231;-80
2021/04/08 04:13:03;;;;;;;0.60;0.60;;;0.50;99.90;;;;;;6102915;23;20184;-81
2021/04/08 04:15:31;;;;;;;0.50;0.50;;;0.50;99.90;;;;;;6106339;23;20184;-81
2021/04/08 04:17:59;;;;;;;0.60;0.60;;;0.40;99.90;;;;;;6102470;23;20183;-81
2021/04/08 04:20:25;;;;;;;0.60;0.60;;;0.40;99.90;;;;;;6094647;23;20183;-80
2021/04/08 04:22:52;;;;;;;0.60;0.60;;;0.50;99.90;;;;;;6094744;23;20176;-80
2021/04/08 04:25:19;;;;;;;0.60;0.60;;;1.20;99.90;;;;;;6094864;23;20523;-80
2021/04/08 04:27:45;;;;;;;0.50;0.50;;;0.40;99.90;;;;;;6095129;23;20179;-80
2021/04/08 04:30:12;;;;;;;0.50;0.50;;;0.40;99.90;;;;;;6095339;23;20187;-81
2021/04/08 04:32:39;;;;;;;0.50;0.50;;;0.40;99.90;;;;;;6094908;23;20338;-80
2021/04/08 04:35:06;;;;;;;0.60;0.60;;;0.40;99.90;;;;;;6095568;23;20487;-80
2021/04/08 04:37:33;;;;;;;0.50;0.50;;;0.40;99.90;;;;;;6094093;23;20175;-80
2021/04/08 04:39:59;;;;;;;0.50;0.50;;;0.40;99.90;;;;;;6094189;23;20183;-81
2021/04/08 04:42:26;;;;;;;0.50;0.50;;;0.40;99.90;;;;;;6093150;23;20184;-81
2021/04/08 04:44:52;;;;;;;0.60;0.60;;;0.30;99.90;;;;;;6092910;23;20419;-80
2021/04/08 04:47:18;;;;;;;0.60;0.60;;;0.20;99.90;;;;;;6090998;23;20190;-81
2021/04/08 04:49:48;;;;;;;0.50;0.50;;;0.30;99.90;;;;;;6092512;23;20664;-81
2021/04/08 04:52:14;;;;;;;0.50;0.50;;;0.30;99.90;;;;;;6111383;23;20221;-81
2021/04/08 04:54:41;;;;;;;0.50;0.50;;;0.30;99.90;;;;;;6112281;23;20190;-81
2021/04/08 04:57:08;;;;;;;0.60;0.60;;;0.30;99.90;;;;;;6111298;23;20183;-81
2021/04/08 04:59:35;;;;;;;0.50;0.50;;;0.30;99.90;;;;;;6108895;23;20247;-81
2021/04/08 05:02:01;;;;;;;0.50;0.50;;;0.40;99.90;;;;;;6110256;23;20616;-81
2021/04/08 05:04:28;;;;;;;0.52;0.52;;;0.40;99.90;;;;;;6107110;23;20314;-81
2021/04/08 05:06:54;;;;;;;0.50;0.50;;;0.40;99.90;;;;;;6106920;23;20443;-81
2021/04/08 05:09:21;;;;;;;0.60;0.60;;;0.50;99.90;;;;;;6097533;22;20207;-80
2021/04/08 05:11:47;;;;;;;0.50;0.50;;;0.20;99.90;;;;;;6096158;23;20175;-80
2021/04/08 05:14:13;;;;;;;0.50;0.50;;;1.60;99.90;;;;;;6095884;23;20678;-80
2021/04/08 05:16:41;;;;;;;0.50;0.50;;;0.70;99.90;;;;;;6098934;23;20306;-80
2021/04/08 05:19:08;;;;;;;0.52;0.52;;;2.80;99.90;;;;;;6097591;23;20206;-80
2021/04/08 05:21:35;;;;;;;0.60;0.60;;;0.00;99.90;;;;;;6099391;23;20187;-79
2021/04/08 05:24:01;;;;;;;0.60;0.60;;;-0.20;99.90;;;;;;6089820;23;20179;-79
2021/04/08 05:26:27;;;;;;;0.50;0.50;;;0.00;99.90;;;;;;6089994;23;20210;-78
2021/04/08 05:28:53;;;;;;;0.50;0.50;;;0.00;99.90;;;;;;6088986;23;20567;-80
2021/04/08 05:31:19;;;;;;;0.50;0.50;;;0.50;99.90;;;;;;6087935;23;20187;-79
2021/04/08 05:33:46;;;;;;;0.60;0.60;;;0.60;99.90;;;;;;6090156;23;20203;-79
2021/04/08 05:36:13;;;;;;;0.50;0.50;;;0.50;99.90;;;;;;6089664;23;20183;-79
2021/04/08 05:38:39;;;;;;;0.60;0.60;;;0.60;99.90;;;;;;6089341;23;20183;-79
2021/04/08 05:41:05;;;;;;;0.50;0.50;;;0.70;99.90;;;;;;6089174;23;20183;-80
2021/04/08 05:43:31;;;;;;;0.60;0.60;;;0.70;99.90;;;;;;6088832;23;20179;-79
2021/04/08 05:45:57;;;;;;;0.60;0.60;;;0.90;99.90;;;;;;6088475;23;20515;-79
2021/04/08 05:48:24;;;;;;;0.50;0.50;;;0.70;99.90;;;;;;6087979;23;20549;-79
2021/04/08 05:50:51;;;;;;;0.50;0.50;;;0.60;99.90;;;;;;6088099;23;20199;-79
2021/04/08 05:53:17;;;;;;;0.50;0.50;;;1.10;99.90;;;;;;6088409;23;20250;-79
2021/04/08 05:55:43;;;;;;;0.50;0.50;;;1.20;99.90;;;;;;6088507;23;20511;-79
2021/04/08 05:58:09;;;;;;;0.50;0.50;;;2.20;99.90;;;;;;6088513;23;20431;-79
2021/04/08 06:00:35;;;;;;;0.50;0.50;;;1.90;99.90;;;;;;6090275;23;20174;-82
2021/04/08 06:03:02;;;;;;;0.60;0.60;;;2.90;99.90;;;;;;6088544;23;20175;-79
2021/04/08 06:05:28;;;;;;;0.52;0.52;;;3.50;99.90;;;;;;6088311;23;20190;-79
2021/04/08 06:07:55;;;;;;;0.55;0.55;;;4.00;99.90;;;;;;6087795;23;20845;-79
2021/04/08 06:10:21;;;;;;;0.60;0.60;;;4.40;99.90;;;;;;6087755;23;20164;-79
2021/04/08 06:12:49;;;;;;;0.50;0.50;;;4.60;99.90;;;;;;6090888;23;20574;-79
2021/04/08 06:15:16;;;;;;;0.50;0.50;;;4.30;99.90;;;;;;6091468;23;20183;-80
2021/04/08 06:17:43;;;;;;;0.60;0.60;;;3.80;99.90;;;;;;6112771;23;20210;-81
2021/04/08 06:20:10;;;;;;;0.60;0.60;;;2.90;99.90;;;;;;6114189;23;20179;-80
2021/04/08 06:22:36;;;;;;;0.60;0.60;;;2.70;99.90;;;;;;6112777;23;20175;-80
2021/04/08 06:25:05;;;;;;;0.60;0.60;;;3.30;99.90;;;;;;6107954;23;20195;-80
2021/04/08 06:27:35;;;;;;;0.60;0.60;;;4.30;99.90;;;;;;6117453;23;20164;-81
2021/04/08 06:30:01;;;;;;;0.60;0.60;;;1.30;99.90;;;;;;6114614;23;20197;-81
2021/04/08 06:32:28;;;;;;;0.60;0.60;;;1.70;99.90;;;;;;6096305;23;20183;-83
2021/04/08 06:34:55;;;;;;;0.50;0.50;;;2.10;99.90;;;;;;6106159;22;20238;-82
2021/04/08 06:37:21;;;;;;;0.50;0.50;;;1.70;99.90;;;;;;6099078;22;20179;-81
2021/04/08 06:39:48;;;;;;;0.50;0.50;;;1.90;99.90;;;;;;6089495;23;20703;-80
2021/04/08 06:42:42;;;;;;;0.50;0.50;;;1.90;99.90;;;;;;6109126;22;20163;-82
2021/04/08 06:45:18;;;;;;;0.52;0.52;;;2.20;99.90;;;;;;6114187;22;20195;-80
2021/04/08 06:48:01;;;;;;;0.50;0.50;;;2.90;99.90;;;;;;6111894;23;20171;-82
2021/04/08 06:50:34;;;;;;;0.57;0.57;;;4.40;99.90;;;;;;6103020;23;20225;-83
2021/04/08 06:53:02;;;;;;;0.50;0.50;;;1.60;99.90;;;;;;6091717;23;20183;-81
2021/04/08 06:55:28;;;;;;;0.60;0.60;;;1.90;99.90;;;;;;6089900;23;20513;-81
2021/04/08 06:57:56;;;;;;;0.52;0.52;;;1.90;99.90;;;;;;6095597;23;20385;-82
2021/04/08 07:00:23;;;;;;;0.60;0.60;;;2.00;99.90;;;;;;6098014;23;20451;-82
2021/04/08 07:02:49;;;;;;;0.60;0.60;;;2.10;99.90;;;;;;6103372;23;20183;-82
2021/04/08 07:05:20;;;;;;;0.57;0.57;;;2.30;99.90;;;;;;6103228;23;20175;-81
2021/04/08 07:07:46;;;;;;;0.50;0.50;;;2.30;99.90;;;;;;6102013;23;20185;-80
2021/04/08 07:10:13;;;;;;;0.50;0.50;;;2.40;99.90;;;;;;6095307;23;20179;-81
2021/04/08 07:12:39;;;;;;;0.50;0.50;;;2.50;99.90;;;;;;6089551;23;20180;-80
2021/04/08 07:15:07;;;;;;;0.50;0.50;;;2.40;99.90;;;;;;6089964;23;20179;-82
2021/04/08 07:17:34;;;;;;;0.60;0.60;;;2.30;99.90;;;;;;6094389;23;20214;-82
2021/04/08 07:20:03;;;;;;;0.50;0.50;;;2.30;99.90;;;;;;6109544;23;20214;-82
2021/04/08 08:04:31;;;;;;;0.50;0.50;;;4.40;99.90;;;;;;6190033;23;20176;-89
2021/04/08 08:06:59;;;;;;;0.50;0.50;;;3.60;99.90;;;;;;6218710;23;20672;-87
2021/04/08 09:06:07;;;;;;;0.50;0.50;;;6.50;99.90;;;;;;6139983;23;20221;-84
2021/04/08 09:08:39;;;;;;;0.60;0.60;;;4.20;99.90;;;;;;6112565;23;20238;-84
2021/04/08 09:11:06;;;;;;;0.50;0.50;;;5.00;99.90;;;;;;6113855;23;20205;-84
2021/04/08 09:13:37;;;;;;;0.60;0.60;;;4.30;99.90;;;;;;6115376;23;20199;-84
2021/04/08 09:16:14;;;;;;;0.55;0.55;;;5.00;99.90;;;;;;6109995;23;20225;-83
2021/04/08 09:18:45;;;;;;;0.60;0.60;;;6.80;99.90;;;;;;6106161;23;20183;-84
2021/04/08 09:21:15;;;;;;;0.60;0.60;;;4.90;99.90;;;;;;6107512;23;20179;-84
2021/04/08 09:23:42;;;;;;;0.50;0.50;;;4.30;99.90;;;;;;6110107;23;20179;-84
2021/04/08 09:26:11;;;;;;;0.50;0.50;;;5.60;99.90;;;;;;6109586;23;20183;-84
2021/04/08 09:28:44;;;;;;;0.60;0.60;;;4.60;99.90;;;;;;6117058;22;20199;-83
2021/04/08 09:31:25;;;;;;;0.60;0.60;;;2.90;99.90;;;;;;6091559;22;20230;-82
2021/04/08 09:34:01;;;;;;;0.60;0.60;;;5.40;99.90;;;;;;6110447;23;20219;-82
2021/04/08 09:36:53;;;;;;;0.60;0.60;;;4.40;99.90;;;;;;6090478;23;20191;-83
2021/04/08 09:39:27;;;;;;;0.50;0.50;;;6.70;99.90;;;;;;6084398;23;20179;-83
2021/04/08 09:41:58;;;;;;;0.60;0.60;;;4.20;99.90;;;;;;6086698;23;20253;-82
2021/04/08 09:44:27;;;;;;;0.52;0.52;;;4.60;99.90;;;;;;6088570;23;20178;-83
2021/04/08 09:46:55;;;;;;;0.55;0.55;;;5.00;99.90;;;;;;6087783;23;20172;-83
2021/04/08 09:49:47;;;;;;;0.50;0.50;;;5.10;99.90;;;;;;6089108;23;20702;-82
2021/04/08 09:52:16;;;;;;;0.60;0.60;;;5.10;99.90;;;;;;6210686;23;20192;-83
2021/04/08 09:54:46;;;;;;;0.60;0.60;;;5.00;99.90;;;;;;6243734;23;20195;-82
2021/04/08 09:57:37;;;;;;;0.60;0.60;;;5.00;99.90;;;;;;6248155;23;20629;-82
2021/04/08 10:00:10;;;;;;;0.50;0.50;;;4.90;99.90;;;;;;6249312;22;20254;-83
2021/04/08 10:02:37;;;;;;;0.60;0.60;;;5.00;99.90;;;;;;6259014;23;20171;-82
2021/04/08 10:05:13;;;;;;;0.60;0.60;;;4.90;99.90;;;;;;6261978;23;20255;-83
2021/04/08 10:07:51;;;;;;;0.60;0.60;;;5.10;99.90;;;;;;6254914;23;20201;-83
2021/04/08 10:10:20;;;;;;;0.57;0.57;;;6.10;99.90;;;;;;6259296;23;20497;-83
2021/04/08 10:13:42;;;;;;;0.50;0.50;;;5.10;99.90;;;;;;6264897;23;20180;-83
2021/04/08 10:16:16;;;;;;;0.55;0.55;;;6.30;99.90;;;;;;6269134;23;20175;-84
2021/04/08 10:21:37;;;;;;;0.60;0.60;;;5.30;99.90;;;;;;6066795;22;20669;-83
2021/04/08 10:24:31;;;;;;;;;;;;;;;;;;;;;
2021/04/08 10:26:59;;;;;;;0.60;0.60;;;5.80;99.90;;;;;;6095866;22;20215;-83
2021/04/08 10:43:55;;;;;;;0.55;0.55;;;5.70;99.90;;;;;;6133849;22;20217;-84
2021/04/08 10:47:06;;;;;;;0.60;0.60;;;8.00;99.90;;;;;;6139567;23;20186;-83
2021/04/08 10:49:38;;;;;;;0.60;0.60;;;5.60;99.90;;;;;;6029185;23;20165;-83
2021/04/08 10:52:08;;;;;;;0.60;0.60;;;6.30;99.90;;;;;;6091924;23;20281;-83
2021/04/08 10:54:37;;;;;;;0.60;0.60;;;6.40;99.90;;;;;;6128122;23;20207;-83
2021/04/08 10:57:04;;;;;;;0.60;0.60;;;6.50;99.90;;;;;;6127105;23;20175;-83
2021/04/08 10:59:32;;;;;;;0.60;0.60;;;7.80;99.90;;;;;;6123607;23;20204;-82
2021/04/08 11:02:00;;;;;;;0.60;0.60;;;7.90;99.90;;;;;;6126625;23;20200;-83
2021/04/08 11:04:27;;;;;;;0.60;0.60;;;6.70;99.90;;;;;;6125977;23;20197;-83
2021/04/08 11:06:57;;;;;;;0.60;0.60;;;5.70;99.90;;;;;;6122726;23;20502;-83
2021/04/08 11:09:25;;;;;;;0.60;0.60;;;7.80;99.90;;;;;;6124423;23;20311;-83
2021/04/08 11:11:52;;;;;;;0.60;0.60;;;7.80;99.90;;;;;;6110618;23;20381;-82
2021/04/08 11:14:22;;;;;;;0.60;0.60;;;6.10;99.90;;;;;;6114526;23;20282;-82
2021/04/08 11:16:51;;;;;;;0.60;0.60;;;6.20;99.90;;;;;;6116142;23;20183;-82
2021/04/08 11:19:17;;;;;;;0.60;0.60;;;6.30;99.90;;;;;;6114257;23;20182;-82
2021/04/08 11:21:44;;;;;;;0.60;0.60;;;6.30;99.90;;;;;;6116616;23;20627;-83
2021/04/08 11:24:11;;;;;;;0.60;0.60;;;6.50;99.90;;;;;;6115953;23;20178;-83
2021/04/08 11:26:46;;;;;;;0.60;0.60;;;6.40;99.90;;;;;;6116840;23;20202;-82
2021/04/08 11:29:19;;;;;;;0.50;0.50;;;6.40;99.90;;;;;;6119927;23;20162;-85
2021/04/08 11:31:59;;;;;;;0.60;0.60;;;6.20;99.90;;;;;;6123323;23;20618;-84
2021/04/08 11:34:25;;;;;;;0.50;0.50;;;6.10;99.90;;;;;;6121849;23;20190;-84
2021/04/08 11:36:53;;;;;;;0.50;0.50;;;6.40;99.90;;;;;;6122014;23;20194;-85
2021/04/08 11:39:19;;;;;;;0.50;0.50;;;6.40;99.90;;;;;;6118319;23;20631;-83
2021/04/08 11:41:46;;;;;;;0.50;0.50;;;6.30;99.90;;;;;;6116854;23;20204;-83
2021/04/08 11:44:23;;;;;;;0.60;0.60;;;6.40;99.90;;;;;;6117614;23;20233;-82
2021/04/08 11:46:49;;;;;;;0.60;0.60;;;6.30;99.90;;;;;;6116931;23;20615;-82
2021/04/08 11:49:17;;;;;;;0.50;0.50;;;6.10;99.90;;;;;;6118309;23;20186;-82
2021/04/08 11:51:44;;;;;;;0.57;0.57;;;6.00;99.90;;;;;;6117500;23;20209;-83
2021/04/08 11:54:12;;;;;;;0.60;0.60;;;5.70;99.90;;;;;;6118086;23;20202;-83
2021/04/08 11:56:39;;;;;;;0.60;0.60;;;5.60;99.90;;;;;;6117242;23;20182;-82
2021/04/08 11:59:11;;;;;;;0.60;0.60;;;5.50;99.90;;;;;;6117700;23;20187;-82
2021/04/08 12:01:40;;;;;;;0.60;0.60;;;5.50;99.90;;;;;;6117360;23;20178;-82
2021/04/08 12:04:15;;;;;;;0.60;0.60;;;5.50;99.90;;;;;;6117623;23;20175;-82
2021/04/08 12:06:45;;;;;;;0.50;0.50;;;5.50;99.90;;;;;;6117176;23;20166;-82
2021/04/08 12:09:11;;;;;;;0.60;0.60;;;5.60;99.90;;;;;;6117761;23;20496;-83
2021/04/08 12:11:52;;;;;;;0.60;0.60;;;5.70;99.90;;;;;;6116217;23;20631;-84
2021/04/08 12:14:18;;;;;;;0.60;0.60;;;5.70;99.90;;;;;;6117405;23;20186;-84
2021/04/08 12:16:59;;;;;;;0.60;0.60;;;5.70;99.90;;;;;;6117452;23;20179;-83
2021/04/08 12:19:25;;;;;;;0.57;0.57;;;5.60;99.90;;;;;;6117250;23;20242;-84
2021/04/08 12:22:00;;;;;;;0.60;0.60;;;5.50;99.90;;;;;;6117164;23;20245;-83
2021/04/08 12:24:27;;;;;;;0.60;0.60;;;5.40;99.90;;;;;;6117247;23;20174;-83
2021/04/08 12:26:53;;;;;;;0.60;0.60;;;5.40;99.90;;;;;;6115637;23;20520;-82
2021/04/08 12:29:21;;;;;;;0.60;0.60;;;5.40;99.90;;;;;;6116924;23;20705;-82
2021/04/08 12:31:48;;;;;;;0.60;0.60;;;5.40;99.90;;;;;;6116917;23;20635;-83
2021/04/08 12:34:15;;;;;;;0.60;0.60;;;5.30;99.90;;;;;;6117844;23;20199;-82
2021/04/08 12:36:41;;;;;;;0.60;0.60;;;5.70;99.90;;;;;;6116599;23;20182;-83
2021/04/08 12:39:08;;;;;;;0.60;0.60;;;5.10;99.90;;;;;;6116874;23;20395;-83
2021/04/08 12:41:34;;;;;;;0.60;0.60;;;4.80;99.90;;;;;;6116169;23;20230;-83
2021/04/08 12:44:00;;;;;;;0.55;0.55;;;4.70;99.90;;;;;;6116984;23;20202;-82
2021/04/08 12:46:27;;;;;;;0.60;0.60;;;4.60;99.90;;;;;;6117219;23;20252;-84
2021/04/08 12:48:53;;;;;;;0.60;0.60;;;4.60;99.90;;;;;;6116792;23;20175;-82
2021/04/08 12:51:20;;;;;;;0.60;0.60;;;4.60;99.90;;;;;;6116818;23;20198;-83
2021/04/08 12:53:46;;;;;;;0.60;0.60;;;4.80;99.90;;;;;;6117455;23;20213;-82
2021/04/08 12:56:14;;;;;;;0.50;0.50;;;4.80;99.90;;;;;;6116113;23;20190;-83
2021/04/08 12:58:40;;;;;;;0.60;0.60;;;4.90;99.90;;;;;;6116894;23;20183;-83
2021/04/08 13:01:06;;;;;;;0.60;0.60;;;5.00;99.90;;;;;;6117086;23;20183;-83
2021/04/08 13:03:33;;;;;;;0.50;0.50;;;5.10;99.90;;;;;;6115997;23;20179;-82
2021/04/08 13:05:59;;;;;;;0.60;0.60;;;5.10;99.90;;;;;;6117874;23;20167;-83
2021/04/08 13:08:25;;;;;;;0.60;0.60;;;5.20;99.90;;;;;;6118786;23;20190;-84
2021/04/08 13:10:52;;;;;;;0.60;0.60;;;5.30;99.90;;;;;;6127535;23;20218;-84
2021/04/08 13:13:19;;;;;;;0.50;0.50;;;5.30;99.90;;;;;;6142501;23;20228;-84
2021/04/08 13:15:47;;;;;;;0.60;0.60;;;5.40;99.90;;;;;;6142791;23;20179;-84
2021/04/08 13:18:20;;;;;;;0.50;0.50;;;5.50;99.90;;;;;;6145966;23;20189;-84
2021/04/08 13:20:49;;;;;;;0.60;0.60;;;6.30;99.90;;;;;;6143272;23;20183;-84
2021/04/08 13:23:16;;;;;;;0.50;0.50;;;4.90;99.90;;;;;;6141624;23;20266;-84
2021/04/08 13:25:45;;;;;;;0.60;0.60;;;7.00;99.90;;;;;;6139672;23;20186;-84
2021/04/08 13:28:11;;;;;;;0.60;0.60;;;5.50;99.90;;;;;;6133813;23;20631;-86
2021/04/08 13:30:40;;;;;;;0.50;0.50;;;5.80;99.90;;;;;;6128722;23;20623;-89
2021/04/08 13:41:06;;;;;;;0.60;0.60;;;5.90;99.90;;;;;;6112616;22;20213;-81
2021/04/08 13:43:32;;;;;;;0.60;0.60;;;5.60;99.90;;;;;;6117787;23;20258;-82
2021/04/08 13:45:59;;;;;;;0.60;0.60;;;5.60;99.90;;;;;;6117527;23;20182;-82
2021/04/08 13:48:26;;;;;;;0.60;0.60;;;5.50;99.90;;;;;;6118163;23;20179;-82
2021/04/08 13:50:55;;;;;;;0.60;0.60;;;5.50;99.90;;;;;;6121043;23;20209;-85
2021/04/08 13:53:21;;;;;;;0.60;0.60;;;5.40;99.90;;;;;;6127637;23;20205;-84
2021/04/08 13:55:57;;;;;;;0.60;0.60;;;5.40;99.90;;;;;;6139802;23;20171;-82
2021/04/08 13:58:24;;;;;;;0.60;0.60;;;5.30;99.90;;;;;;6140236;23;20177;-83
2021/04/08 14:01:03;;;;;;;;;;;;;;;;;;;;;
2021/04/08 14:03:43;;;;;;;;;;;;;;;;;;;;;
2021/04/08 14:06:13;;;;;;;0.60;0.60;;;5.70;99.90;;;;;;6136392;23;20175;-83
2021/04/08 14:08:40;;;;;;;0.60;0.60;;;6.50;99.90;;;;;;6134184;23;20228;-83
2021/04/08 14:11:08;;;;;;;0.60;0.60;;;5.50;99.90;;;;;;6132665;23;20204;-83
2021/04/08 14:13:35;;;;;;;0.60;0.60;;;5.10;99.90;;;;;;6131985;23;20191;-83
2021/04/08 14:16:04;;;;;;;0.60;0.60;;;5.60;99.90;;;;;;6136187;23;20634;-83
2021/04/08 14:18:39;;;;;;;0.60;0.60;;;7.10;99.90;;;;;;6138348;23;20174;-83
2021/04/08 14:21:07;;;;;;;0.60;0.60;;;5.90;99.90;;;;;;6136651;23;20174;-83
2021/04/08 14:23:34;;;;;;;0.60;0.60;;;7.70;99.90;;;;;;6135155;23;20178;-83
2021/04/08 14:26:05;;;;;;;0.57;0.57;;;6.00;99.90;;;;;;6134254;23;20696;-83
2021/04/08 14:28:37;;;;;;;0.60;0.60;;;5.80;99.90;;;;;;6133165;23;20167;-83
2021/04/08 14:31:06;;;;;;;0.60;0.60;;;6.10;99.90;;;;;;6134216;23;20178;-82
2021/04/08 14:33:49;;;;;;;0.60;0.60;;;5.80;99.90;;;;;;6137148;23;20626;-83
2021/04/08 14:36:15;;;;;;;0.60;0.60;;;5.10;99.90;;;;;;6134769;23;20673;-83
2021/04/08 14:38:42;;;;;;;0.60;0.60;;;5.70;99.90;;;;;;6131646;23;20202;-83
2021/04/08 14:41:08;;;;;;;0.60;0.60;;;5.50;99.90;;;;;;6128482;23;20270;-83
2021/04/08 14:43:34;;;;;;;0.60;0.60;;;6.80;99.90;;;;;;6128603;23;20198;-83
2021/04/08 14:46:02;;;;;;;0.55;0.55;;;5.00;99.90;;;;;;6125623;23;20507;-83
2021/04/08 14:48:28;;;;;;;0.60;0.60;;;6.70;99.90;;;;;;6124417;23;20620;-83
2021/04/08 14:50:57;;;;;;;0.60;0.60;;;4.80;99.90;;;;;;6120045;23;20312;-83
2021/04/08 14:53:24;;;;;;;0.60;0.60;;;4.50;99.90;;;;;;6120545;23;22156;-82
2021/04/08 14:55:50;;;;;;;0.60;0.60;;;6.70;99.90;;;;;;6118073;23;20175;-83
2021/04/08 14:58:16;;;;;;;0.60;0.60;;;4.70;99.90;;;;;;6120192;23;20197;-83
2021/04/08 15:03:22;;;;;;;0.60;0.60;;;5.10;99.90;;;;;;6221672;23;20175;-83
2021/04/08 15:05:50;;;;;;;0.60;0.60;;;4.60;99.90;;;;;;6238340;22;20207;-81
2021/04/08 15:08:29;;;;;;;0.60;0.60;;;5.60;99.90;;;;;;6272676;22;20231;-82
2021/04/08 15:11:03;;;;;;;0.50;0.50;;;5.80;99.90;;;;;;6179732;22;20218;-82
2021/04/08 15:13:32;;;;;;;0.60;0.60;;;5.20;99.90;;;;;;6116170;23;20243;-82
2021/04/08 15:16:06;;;;;;;0.60;0.60;;;7.10;99.90;;;;;;6114801;23;20179;-82
2021/04/08 15:18:35;;;;;;;0.60;0.60;;;6.70;99.90;;;;;;6116996;23;20171;-81